sensor_id;sensor_type;location;lat;lon;timestamp;P1;durP1;ratioP1;P2;durP2;ratioP2
58101;SDS011;52034;51.926;6.320;2023-03-14T00:00:30;13.07;;;4.43;;
58101;SDS011;52034;51.926;6.320;2023-03-14T00:01:30;10.67;;;4.17;;
58101;SDS011;52034;51.926;6.320;2023-03-14T00:02:31;13.10;;;4.50;;
58101;SDS011;52034;51.926;6.320;2023-03-14T00:03:31;8.10;;;3.93;;
58101;SDS011;52034;51.926;6.320;2023-03-14T00:04:32;12.70;;;4.30;;
58101;SDS011;52034;51.926;6.320;2023-03-14T00:05:33;9.83;;;4.30;;
58101;SDS011;52034;51.926;6.320;2023-03-14T00:06:34;8.20;;;4.32;;
58101;SDS011;52034;51.926;6.320;2023-03-14T00:07:35;13.98;;;4.60;;
58101;SDS011;52034;51.926;6.320;2023-03-14T00:09:37;12.52;;;4.32;;
58101;SDS011;52034;51.926;6.320;2023-03-14T00:10:37;12.67;;;4.50;;
58101;SDS011;52034;51.926;6.320;2023-03-14T00:11:38;16.65;;;5.45;;
58101;SDS011;52034;51.926;6.320;2023-03-14T00:12:39;9.00;;;4.10;;
58101;SDS011;52034;51.926;6.320;2023-03-14T00:13:40;10.98;;;4.13;;
58101;SDS011;52034;51.926;6.320;2023-03-14T00:14:41;11.48;;;4.70;;
58101;SDS011;52034;51.926;6.320;2023-03-14T00:15:43;11.32;;;4.35;;
58101;SDS011;52034;51.926;6.320;2023-03-14T00:16:47;11.30;;;3.97;;
58101;SDS011;52034;51.926;6.320;2023-03-14T00:17:47;12.18;;;4.30;;
58101;SDS011;52034;51.926;6.320;2023-03-14T00:18:48;9.93;;;4.47;;
58101;SDS011;52034;51.926;6.320;2023-03-14T00:19:48;13.90;;;4.30;;
58101;SDS011;52034;51.926;6.320;2023-03-14T00:20:52;10.05;;;4.20;;
58101;SDS011;52034;51.926;6.320;2023-03-14T00:21:52;10.40;;;4.53;;
58101;SDS011;52034;51.926;6.320;2023-03-14T00:22:52;14.73;;;4.20;;
58101;SDS011;52034;51.926;6.320;2023-03-14T00:23:53;12.00;;;4.53;;
58101;SDS011;52034;51.926;6.320;2023-03-14T00:24:53;11.73;;;3.80;;
58101;SDS011;52034;51.926;6.320;2023-03-14T00:25:53;12.33;;;4.43;;
58101;SDS011;52034;51.926;6.320;2023-03-14T00:26:58;11.52;;;4.72;;
58101;SDS011;52034;51.926;6.320;2023-03-14T00:27:58;11.03;;;4.07;;
58101;SDS011;52034;51.926;6.320;2023-03-14T00:28:59;12.40;;;4.30;;
58101;SDS011;52034;51.926;6.320;2023-03-14T00:29:59;9.33;;;3.90;;
58101;SDS011;52034;51.926;6.320;2023-03-14T00:31:01;11.97;;;4.30;;
58101;SDS011;52034;51.926;6.320;2023-03-14T00:32:03;11.40;;;4.18;;
58101;SDS011;52034;51.926;6.320;2023-03-14T00:33:03;12.13;;;4.10;;
58101;SDS011;52034;51.926;6.320;2023-03-14T00:34:04;6.37;;;3.90;;
58101;SDS011;52034;51.926;6.320;2023-03-14T00:35:06;11.32;;;4.20;;
58101;SDS011;52034;51.926;6.320;2023-03-14T00:36:07;9.93;;;4.33;;
58101;SDS011;52034;51.926;6.320;2023-03-14T00:37:13;15.13;;;4.90;;
58101;SDS011;52034;51.926;6.320;2023-03-14T00:38:13;10.87;;;4.10;;
58101;SDS011;52034;51.926;6.320;2023-03-14T00:39:14;10.87;;;4.23;;
58101;SDS011;52034;51.926;6.320;2023-03-14T00:40:14;11.53;;;4.30;;
58101;SDS011;52034;51.926;6.320;2023-03-14T00:41:15;16.13;;;4.90;;
58101;SDS011;52034;51.926;6.320;2023-03-14T00:42:18;16.50;;;5.57;;
58101;SDS011;52034;51.926;6.320;2023-03-14T00:43:18;10.37;;;4.30;;
58101;SDS011;52034;51.926;6.320;2023-03-14T00:44:21;12.15;;;4.60;;
58101;SDS011;52034;51.926;6.320;2023-03-14T00:45:22;13.87;;;5.00;;
58101;SDS011;52034;51.926;6.320;2023-03-14T00:46:22;10.93;;;4.30;;
58101;SDS011;52034;51.926;6.320;2023-03-14T00:47:22;10.43;;;4.40;;
58101;SDS011;52034;51.926;6.320;2023-03-14T00:48:23;8.33;;;4.50;;
58101;SDS011;52034;51.926;6.320;2023-03-14T00:49:23;10.20;;;4.03;;
58101;SDS011;52034;51.926;6.320;2023-03-14T00:50:25;8.88;;;3.92;;
58101;SDS011;52034;51.926;6.320;2023-03-14T00:51:25;10.07;;;4.17;;
58101;SDS011;52034;51.926;6.320;2023-03-14T00:52:25;13.83;;;4.03;;
58101;SDS011;52034;51.926;6.320;2023-03-14T00:53:26;14.73;;;4.47;;
58101;SDS011;52034;51.926;6.320;2023-03-14T00:54:26;12.53;;;5.07;;
58101;SDS011;52034;51.926;6.320;2023-03-14T00:55:26;8.70;;;4.03;;
58101;SDS011;52034;51.926;6.320;2023-03-14T00:56:27;8.38;;;4.25;;
58101;SDS011;52034;51.926;6.320;2023-03-14T00:57:28;12.20;;;4.50;;
58101;SDS011;52034;51.926;6.320;2023-03-14T00:58:28;11.03;;;4.00;;
58101;SDS011;52034;51.926;6.320;2023-03-14T00:59:28;10.57;;;4.20;;
58101;SDS011;52034;51.926;6.320;2023-03-14T01:00:29;9.93;;;3.93;;
58101;SDS011;52034;51.926;6.320;2023-03-14T01:01:29;8.10;;;4.27;;
58101;SDS011;52034;51.926;6.320;2023-03-14T01:02:29;11.80;;;4.83;;
58101;SDS011;52034;51.926;6.320;2023-03-14T01:03:30;12.37;;;4.20;;
58101;SDS011;52034;51.926;6.320;2023-03-14T01:04:30;12.90;;;4.27;;
58101;SDS011;52034;51.926;6.320;2023-03-14T01:05:31;8.87;;;4.53;;
58101;SDS011;52034;51.926;6.320;2023-03-14T01:06:31;10.67;;;3.90;;
58101;SDS011;52034;51.926;6.320;2023-03-14T01:07:31;10.57;;;4.17;;
58101;SDS011;52034;51.926;6.320;2023-03-14T01:08:32;11.20;;;4.10;;
58101;SDS011;52034;51.926;6.320;2023-03-14T01:09:32;9.40;;;3.50;;
58101;SDS011;52034;51.926;6.320;2023-03-14T01:10:33;9.73;;;3.67;;
58101;SDS011;52034;51.926;6.320;2023-03-14T01:11:38;8.60;;;3.83;;
58101;SDS011;52034;51.926;6.320;2023-03-14T01:12:39;10.10;;;3.87;;
58101;SDS011;52034;51.926;6.320;2023-03-14T01:13:39;14.33;;;4.37;;
58101;SDS011;52034;51.926;6.320;2023-03-14T01:14:40;7.47;;;3.90;;
58101;SDS011;52034;51.926;6.320;2023-03-14T01:15:40;9.80;;;3.77;;
58101;SDS011;52034;51.926;6.320;2023-03-14T01:16:44;11.20;;;4.32;;
58101;SDS011;52034;51.926;6.320;2023-03-14T01:17:44;9.33;;;4.07;;
58101;SDS011;52034;51.926;6.320;2023-03-14T01:18:46;12.60;;;4.77;;
58101;SDS011;52034;51.926;6.320;2023-03-14T01:19:47;8.95;;;3.75;;
58101;SDS011;52034;51.926;6.320;2023-03-14T01:20:47;10.57;;;3.57;;
58101;SDS011;52034;51.926;6.320;2023-03-14T01:21:48;9.07;;;3.70;;
58101;SDS011;52034;51.926;6.320;2023-03-14T01:22:48;10.73;;;3.87;;
58101;SDS011;52034;51.926;6.320;2023-03-14T01:23:49;8.20;;;3.40;;
58101;SDS011;52034;51.926;6.320;2023-03-14T01:24:50;8.80;;;3.90;;
58101;SDS011;52034;51.926;6.320;2023-03-14T01:25:50;10.67;;;3.97;;
58101;SDS011;52034;51.926;6.320;2023-03-14T01:27:52;9.95;;;3.90;;
58101;SDS011;52034;51.926;6.320;2023-03-14T01:28:53;8.37;;;3.43;;
58101;SDS011;52034;51.926;6.320;2023-03-14T01:29:55;10.10;;;3.85;;
58101;SDS011;52034;51.926;6.320;2023-03-14T01:30:56;6.70;;;3.40;;
58101;SDS011;52034;51.926;6.320;2023-03-14T01:32:02;8.40;;;3.72;;
58101;SDS011;52034;51.926;6.320;2023-03-14T01:34:03;8.85;;;3.45;;
58101;SDS011;52034;51.926;6.320;2023-03-14T01:35:04;10.53;;;3.50;;
58101;SDS011;52034;51.926;6.320;2023-03-14T01:36:05;9.52;;;3.30;;
58101;SDS011;52034;51.926;6.320;2023-03-14T01:37:06;11.43;;;3.58;;
58101;SDS011;52034;51.926;6.320;2023-03-14T01:38:08;8.93;;;3.17;;
58101;SDS011;52034;51.926;6.320;2023-03-14T01:39:08;10.00;;;3.60;;
58101;SDS011;52034;51.926;6.320;2023-03-14T01:40:10;10.80;;;3.28;;
58101;SDS011;52034;51.926;6.320;2023-03-14T01:42:17;9.55;;;3.35;;
58101;SDS011;52034;51.926;6.320;2023-03-14T01:43:18;10.33;;;3.63;;
58101;SDS011;52034;51.926;6.320;2023-03-14T01:44:20;8.80;;;3.15;;
58101;SDS011;52034;51.926;6.320;2023-03-14T01:46:58;10.32;;;3.20;;
58101;SDS011;52034;51.926;6.320;2023-03-14T01:47:58;14.07;;;3.57;;
58101;SDS011;52034;51.926;6.320;2023-03-14T01:50:32;7.82;;;2.88;;
58101;SDS011;52034;51.926;6.320;2023-03-14T01:51:35;13.97;;;3.60;;
58101;SDS011;52034;51.926;6.320;2023-03-14T01:52:43;12.07;;;3.72;;
58101;SDS011;52034;51.926;6.320;2023-03-14T01:53:49;7.43;;;2.92;;
58101;SDS011;52034;51.926;6.320;2023-03-14T01:54:53;8.77;;;2.88;;
58101;SDS011;52034;51.926;6.320;2023-03-14T01:55:57;10.10;;;3.40;;
58101;SDS011;52034;51.926;6.320;2023-03-14T01:57:01;7.93;;;3.10;;
58101;SDS011;52034;51.926;6.320;2023-03-14T01:58:08;9.63;;;2.92;;
58101;SDS011;52034;51.926;6.320;2023-03-14T01:59:09;7.20;;;3.15;;
58101;SDS011;52034;51.926;6.320;2023-03-14T02:02:16;10.48;;;3.22;;
58101;SDS011;52034;51.926;6.320;2023-03-14T02:03:17;8.53;;;3.23;;
58101;SDS011;52034;51.926;6.320;2023-03-14T02:04:21;12.25;;;3.10;;
58101;SDS011;52034;51.926;6.320;2023-03-14T02:05:24;9.13;;;3.03;;
58101;SDS011;52034;51.926;6.320;2023-03-14T02:06:38;11.02;;;3.70;;
58101;SDS011;52034;51.926;6.320;2023-03-14T02:07:49;12.18;;;3.35;;
58101;SDS011;52034;51.926;6.320;2023-03-14T02:08:56;8.27;;;3.22;;
58101;SDS011;52034;51.926;6.320;2023-03-14T02:09:59;10.18;;;3.15;;
58101;SDS011;52034;51.926;6.320;2023-03-14T02:11:05;9.68;;;2.97;;
58101;SDS011;52034;51.926;6.320;2023-03-14T02:12:18;9.27;;;3.30;;
58101;SDS011;52034;51.926;6.320;2023-03-14T02:13:24;10.35;;;3.00;;
58101;SDS011;52034;51.926;6.320;2023-03-14T02:14:44;10.65;;;3.10;;
58101;SDS011;52034;51.926;6.320;2023-03-14T02:16:01;11.27;;;3.58;;
58101;SDS011;52034;51.926;6.320;2023-03-14T02:17:13;10.00;;;3.83;;
58101;SDS011;52034;51.926;6.320;2023-03-14T02:18:37;8.27;;;3.00;;
58101;SDS011;52034;51.926;6.320;2023-03-14T02:20:00;7.18;;;3.17;;
58101;SDS011;52034;51.926;6.320;2023-03-14T02:21:13;9.80;;;3.25;;
58101;SDS011;52034;51.926;6.320;2023-03-14T02:22:18;10.55;;;3.30;;
58101;SDS011;52034;51.926;6.320;2023-03-14T02:26:13;7.35;;;2.97;;
58101;SDS011;52034;51.926;6.320;2023-03-14T02:27:19;12.63;;;3.55;;
58101;SDS011;52034;51.926;6.320;2023-03-14T02:28:21;12.13;;;3.17;;
58101;SDS011;52034;51.926;6.320;2023-03-14T02:29:24;10.48;;;3.80;;
58101;SDS011;52034;51.926;6.320;2023-03-14T02:30:26;8.93;;;2.90;;
58101;SDS011;52034;51.926;6.320;2023-03-14T02:31:28;10.05;;;3.13;;
58101;SDS011;52034;51.926;6.320;2023-03-14T02:32:29;11.63;;;3.10;;
58101;SDS011;52034;51.926;6.320;2023-03-14T02:33:31;7.70;;;3.22;;
58101;SDS011;52034;51.926;6.320;2023-03-14T02:34:32;8.50;;;3.03;;
58101;SDS011;52034;51.926;6.320;2023-03-14T02:35:36;11.73;;;3.70;;
58101;SDS011;52034;51.926;6.320;2023-03-14T02:36:41;10.48;;;3.15;;
58101;SDS011;52034;51.926;6.320;2023-03-14T02:37:43;9.60;;;3.40;;
58101;SDS011;52034;51.926;6.320;2023-03-14T02:38:58;7.40;;;2.90;;
58101;SDS011;52034;51.926;6.320;2023-03-14T02:40:07;8.60;;;3.00;;
58101;SDS011;52034;51.926;6.320;2023-03-14T02:41:09;10.70;;;3.05;;
58101;SDS011;52034;51.926;6.320;2023-03-14T02:42:15;11.57;;;3.20;;
58101;SDS011;52034;51.926;6.320;2023-03-14T02:43:15;8.03;;;3.03;;
58101;SDS011;52034;51.926;6.320;2023-03-14T02:44:22;9.75;;;2.92;;
58101;SDS011;52034;51.926;6.320;2023-03-14T02:46:25;10.95;;;3.80;;
58101;SDS011;52034;51.926;6.320;2023-03-14T02:47:29;8.57;;;3.30;;
58101;SDS011;52034;51.926;6.320;2023-03-14T02:48:34;9.80;;;3.42;;
58101;SDS011;52034;51.926;6.320;2023-03-14T02:49:39;12.90;;;3.58;;
58101;SDS011;52034;51.926;6.320;2023-03-14T02:50:40;10.53;;;3.23;;
58101;SDS011;52034;51.926;6.320;2023-03-14T02:51:41;7.68;;;2.90;;
58101;SDS011;52034;51.926;6.320;2023-03-14T02:52:43;12.82;;;3.55;;
58101;SDS011;52034;51.926;6.320;2023-03-14T02:53:43;7.63;;;3.30;;
58101;SDS011;52034;51.926;6.320;2023-03-14T02:54:46;11.10;;;3.38;;
58101;SDS011;52034;51.926;6.320;2023-03-14T02:55:47;11.93;;;3.13;;
58101;SDS011;52034;51.926;6.320;2023-03-14T02:56:50;6.97;;;3.08;;
58101;SDS011;52034;51.926;6.320;2023-03-14T02:57:50;10.73;;;3.10;;
58101;SDS011;52034;51.926;6.320;2023-03-14T02:58:51;11.27;;;3.17;;
58101;SDS011;52034;51.926;6.320;2023-03-14T03:00:04;10.20;;;3.17;;
58101;SDS011;52034;51.926;6.320;2023-03-14T03:01:08;8.10;;;3.40;;
58101;SDS011;52034;51.926;6.320;2023-03-14T03:02:08;8.67;;;3.13;;
58101;SDS011;52034;51.926;6.320;2023-03-14T03:03:09;8.57;;;3.00;;
58101;SDS011;52034;51.926;6.320;2023-03-14T03:04:09;10.17;;;3.20;;
58101;SDS011;52034;51.926;6.320;2023-03-14T03:05:10;8.30;;;2.90;;
58101;SDS011;52034;51.926;6.320;2023-03-14T03:06:10;9.20;;;2.93;;
58101;SDS011;52034;51.926;6.320;2023-03-14T03:07:11;9.90;;;3.40;;
58101;SDS011;52034;51.926;6.320;2023-03-14T03:08:11;15.10;;;3.57;;
58101;SDS011;52034;51.926;6.320;2023-03-14T03:09:11;12.83;;;3.53;;
58101;SDS011;52034;51.926;6.320;2023-03-14T03:10:12;9.30;;;3.33;;
58101;SDS011;52034;51.926;6.320;2023-03-14T03:11:12;12.67;;;3.13;;
58101;SDS011;52034;51.926;6.320;2023-03-14T03:12:13;12.07;;;3.50;;
58101;SDS011;52034;51.926;6.320;2023-03-14T03:13:13;9.37;;;3.67;;
58101;SDS011;52034;51.926;6.320;2023-03-14T03:15:15;11.88;;;3.60;;
58101;SDS011;52034;51.926;6.320;2023-03-14T03:16:15;5.97;;;3.00;;
58101;SDS011;52034;51.926;6.320;2023-03-14T03:17:16;8.03;;;2.93;;
58101;SDS011;52034;51.926;6.320;2023-03-14T03:18:16;8.40;;;3.17;;
58101;SDS011;52034;51.926;6.320;2023-03-14T03:19:17;8.87;;;3.50;;
58101;SDS011;52034;51.926;6.320;2023-03-14T03:20:17;8.63;;;3.28;;
58101;SDS011;52034;51.926;6.320;2023-03-14T03:21:18;9.70;;;3.33;;
58101;SDS011;52034;51.926;6.320;2023-03-14T03:22:18;9.63;;;3.10;;
58101;SDS011;52034;51.926;6.320;2023-03-14T03:23:19;11.23;;;3.47;;
58101;SDS011;52034;51.926;6.320;2023-03-14T03:24:19;12.97;;;4.10;;
58101;SDS011;52034;51.926;6.320;2023-03-14T03:25:20;11.30;;;3.20;;
58101;SDS011;52034;51.926;6.320;2023-03-14T03:26:20;11.57;;;3.50;;
58101;SDS011;52034;51.926;6.320;2023-03-14T03:27:20;9.07;;;3.67;;
58101;SDS011;52034;51.926;6.320;2023-03-14T03:28:21;10.27;;;3.40;;
58101;SDS011;52034;51.926;6.320;2023-03-14T03:29:21;9.87;;;3.53;;
58101;SDS011;52034;51.926;6.320;2023-03-14T03:30:22;11.67;;;3.57;;
58101;SDS011;52034;51.926;6.320;2023-03-14T03:31:22;8.70;;;3.40;;
58101;SDS011;52034;51.926;6.320;2023-03-14T03:32:22;9.07;;;3.23;;
58101;SDS011;52034;51.926;6.320;2023-03-14T03:33:23;11.65;;;4.05;;
58101;SDS011;52034;51.926;6.320;2023-03-14T03:34:24;9.93;;;3.03;;
58101;SDS011;52034;51.926;6.320;2023-03-14T03:35:27;9.13;;;3.00;;
58101;SDS011;52034;51.926;6.320;2023-03-14T03:36:29;11.43;;;3.22;;
58101;SDS011;52034;51.926;6.320;2023-03-14T03:37:32;8.07;;;3.22;;
58101;SDS011;52034;51.926;6.320;2023-03-14T03:38:34;9.68;;;3.05;;
58101;SDS011;52034;51.926;6.320;2023-03-14T03:39:37;9.32;;;3.60;;
58101;SDS011;52034;51.926;6.320;2023-03-14T03:40:37;13.43;;;3.73;;
58101;SDS011;52034;51.926;6.320;2023-03-14T03:41:38;10.00;;;3.80;;
58101;SDS011;52034;51.926;6.320;2023-03-14T03:42:38;9.80;;;3.17;;
58101;SDS011;52034;51.926;6.320;2023-03-14T03:43:42;12.27;;;3.53;;
58101;SDS011;52034;51.926;6.320;2023-03-14T03:44:44;11.98;;;3.25;;
58101;SDS011;52034;51.926;6.320;2023-03-14T03:45:44;9.88;;;3.45;;
58101;SDS011;52034;51.926;6.320;2023-03-14T03:46:45;11.30;;;3.47;;
58101;SDS011;52034;51.926;6.320;2023-03-14T03:47:45;11.00;;;3.57;;
58101;SDS011;52034;51.926;6.320;2023-03-14T03:48:45;13.07;;;3.60;;
58101;SDS011;52034;51.926;6.320;2023-03-14T03:49:46;8.97;;;3.57;;
58101;SDS011;52034;51.926;6.320;2023-03-14T03:50:46;8.10;;;3.83;;
58101;SDS011;52034;51.926;6.320;2023-03-14T03:51:49;10.00;;;3.72;;
58101;SDS011;52034;51.926;6.320;2023-03-14T03:52:50;9.67;;;3.10;;
58101;SDS011;52034;51.926;6.320;2023-03-14T03:53:50;9.57;;;3.40;;
58101;SDS011;52034;51.926;6.320;2023-03-14T03:54:57;10.13;;;3.80;;
58101;SDS011;52034;51.926;6.320;2023-03-14T03:55:57;13.67;;;3.77;;
58101;SDS011;52034;51.926;6.320;2023-03-14T03:56:57;9.20;;;3.87;;
58101;SDS011;52034;51.926;6.320;2023-03-14T03:57:58;12.20;;;3.50;;
58101;SDS011;52034;51.926;6.320;2023-03-14T03:58:58;13.90;;;3.70;;
58101;SDS011;52034;51.926;6.320;2023-03-14T03:59:59;8.63;;;3.70;;
58101;SDS011;52034;51.926;6.320;2023-03-14T04:02:01;16.02;;;4.72;;
58101;SDS011;52034;51.926;6.320;2023-03-14T04:03:02;13.05;;;4.10;;
58101;SDS011;52034;51.926;6.320;2023-03-14T04:04:03;12.47;;;4.03;;
58101;SDS011;52034;51.926;6.320;2023-03-14T04:05:04;13.77;;;4.17;;
58101;SDS011;52034;51.926;6.320;2023-03-14T04:06:05;11.53;;;3.77;;
58101;SDS011;52034;51.926;6.320;2023-03-14T04:07:10;12.05;;;4.43;;
58101;SDS011;52034;51.926;6.320;2023-03-14T04:08:13;10.80;;;3.65;;
58101;SDS011;52034;51.926;6.320;2023-03-14T04:09:13;9.93;;;3.80;;
58101;SDS011;52034;51.926;6.320;2023-03-14T04:10:18;10.25;;;3.38;;
58101;SDS011;52034;51.926;6.320;2023-03-14T04:11:32;9.38;;;3.20;;
58101;SDS011;52034;51.926;6.320;2023-03-14T04:12:48;13.68;;;3.63;;
58101;SDS011;52034;51.926;6.320;2023-03-14T04:13:52;9.63;;;3.60;;
58101;SDS011;52034;51.926;6.320;2023-03-14T04:14:53;11.67;;;3.97;;
58101;SDS011;52034;51.926;6.320;2023-03-14T04:15:55;13.68;;;4.00;;
58101;SDS011;52034;51.926;6.320;2023-03-14T04:16:59;10.13;;;3.63;;
58101;SDS011;52034;51.926;6.320;2023-03-14T04:17:59;12.57;;;4.50;;
58101;SDS011;52034;51.926;6.320;2023-03-14T04:19:00;12.43;;;4.37;;
58101;SDS011;52034;51.926;6.320;2023-03-14T04:20:01;14.38;;;3.50;;
58101;SDS011;52034;51.926;6.320;2023-03-14T04:21:08;13.25;;;3.90;;
58101;SDS011;52034;51.926;6.320;2023-03-14T04:22:17;8.02;;;3.28;;
58101;SDS011;52034;51.926;6.320;2023-03-14T04:23:23;11.75;;;3.60;;
58101;SDS011;52034;51.926;6.320;2023-03-14T04:24:24;11.73;;;3.90;;
58101;SDS011;52034;51.926;6.320;2023-03-14T04:25:25;10.47;;;3.17;;
58101;SDS011;52034;51.926;6.320;2023-03-14T04:26:29;9.35;;;3.42;;
58101;SDS011;52034;51.926;6.320;2023-03-14T04:27:29;10.67;;;3.50;;
58101;SDS011;52034;51.926;6.320;2023-03-14T04:28:30;12.82;;;4.10;;
58101;SDS011;52034;51.926;6.320;2023-03-14T04:29:31;10.10;;;3.90;;
58101;SDS011;52034;51.926;6.320;2023-03-14T04:30:31;13.37;;;3.83;;
58101;SDS011;52034;51.926;6.320;2023-03-14T04:31:37;9.35;;;3.42;;
58101;SDS011;52034;51.926;6.320;2023-03-14T04:32:38;10.67;;;3.90;;
58101;SDS011;52034;51.926;6.320;2023-03-14T04:33:39;10.15;;;3.30;;
58101;SDS011;52034;51.926;6.320;2023-03-14T04:34:40;14.98;;;4.00;;
58101;SDS011;52034;51.926;6.320;2023-03-14T04:35:41;11.97;;;3.60;;
58101;SDS011;52034;51.926;6.320;2023-03-14T04:36:44;13.02;;;3.95;;
58101;SDS011;52034;51.926;6.320;2023-03-14T04:37:49;10.27;;;3.53;;
58101;SDS011;52034;51.926;6.320;2023-03-14T04:38:53;12.02;;;3.75;;
58101;SDS011;52034;51.926;6.320;2023-03-14T04:39:54;9.60;;;3.72;;
58101;SDS011;52034;51.926;6.320;2023-03-14T04:41:00;12.23;;;3.80;;
58101;SDS011;52034;51.926;6.320;2023-03-14T04:42:05;13.55;;;3.90;;
58101;SDS011;52034;51.926;6.320;2023-03-14T04:43:06;11.47;;;4.13;;
58101;SDS011;52034;51.926;6.320;2023-03-14T04:45:09;10.68;;;3.55;;
58101;SDS011;52034;51.926;6.320;2023-03-14T04:46:11;11.63;;;3.33;;
58101;SDS011;52034;51.926;6.320;2023-03-14T04:47:12;11.35;;;4.25;;
58101;SDS011;52034;51.926;6.320;2023-03-14T04:48:14;13.43;;;3.83;;
58101;SDS011;52034;51.926;6.320;2023-03-14T04:49:15;10.83;;;3.73;;
58101;SDS011;52034;51.926;6.320;2023-03-14T04:50:15;13.20;;;4.00;;
58101;SDS011;52034;51.926;6.320;2023-03-14T04:51:16;9.20;;;4.03;;
58101;SDS011;52034;51.926;6.320;2023-03-14T04:52:16;12.83;;;3.90;;
58101;SDS011;52034;51.926;6.320;2023-03-14T04:53:17;11.10;;;3.57;;
58101;SDS011;52034;51.926;6.320;2023-03-14T04:54:18;12.82;;;3.70;;
58101;SDS011;52034;51.926;6.320;2023-03-14T04:55:22;10.40;;;4.00;;
58101;SDS011;52034;51.926;6.320;2023-03-14T04:56:23;13.93;;;4.10;;
58101;SDS011;52034;51.926;6.320;2023-03-14T04:57:23;9.43;;;3.43;;
58101;SDS011;52034;51.926;6.320;2023-03-14T04:58:24;9.03;;;3.20;;
58101;SDS011;52034;51.926;6.320;2023-03-14T04:59:25;9.52;;;3.70;;
58101;SDS011;52034;51.926;6.320;2023-03-14T05:00:29;9.93;;;3.42;;
58101;SDS011;52034;51.926;6.320;2023-03-14T05:01:50;12.40;;;3.92;;
58101;SDS011;52034;51.926;6.320;2023-03-14T05:02:58;15.35;;;3.78;;
58101;SDS011;52034;51.926;6.320;2023-03-14T05:04:25;10.65;;;3.67;;
58101;SDS011;52034;51.926;6.320;2023-03-14T05:05:49;16.60;;;3.90;;
58101;SDS011;52034;51.926;6.320;2023-03-14T05:07:09;9.95;;;3.53;;
58101;SDS011;52034;51.926;6.320;2023-03-14T05:08:36;10.23;;;4.03;;
58101;SDS011;52034;51.926;6.320;2023-03-14T05:09:59;11.68;;;3.45;;
58101;SDS011;52034;51.926;6.320;2023-03-14T05:11:14;8.85;;;3.22;;
58101;SDS011;52034;51.926;6.320;2023-03-14T05:12:35;10.88;;;3.60;;
58101;SDS011;52034;51.926;6.320;2023-03-14T05:13:49;17.73;;;4.70;;
58101;SDS011;52034;51.926;6.320;2023-03-14T05:14:52;10.45;;;3.28;;
58101;SDS011;52034;51.926;6.320;2023-03-14T05:15:52;11.57;;;3.83;;
58101;SDS011;52034;51.926;6.320;2023-03-14T05:17:13;13.88;;;4.53;;
58101;SDS011;52034;51.926;6.320;2023-03-14T05:18:39;8.85;;;3.88;;
58101;SDS011;52034;51.926;6.320;2023-03-14T05:19:45;12.10;;;3.90;;
58101;SDS011;52034;51.926;6.320;2023-03-14T05:21:06;10.95;;;3.60;;
58101;SDS011;52034;51.926;6.320;2023-03-14T05:22:32;9.90;;;3.55;;
58101;SDS011;52034;51.926;6.320;2023-03-14T05:24:16;13.00;;;3.85;;
58101;SDS011;52034;51.926;6.320;2023-03-14T05:25:32;11.70;;;3.53;;
58101;SDS011;52034;51.926;6.320;2023-03-14T05:26:56;8.60;;;3.15;;
58101;SDS011;52034;51.926;6.320;2023-03-14T05:28:19;12.75;;;3.47;;
58101;SDS011;52034;51.926;6.320;2023-03-14T05:29:42;10.50;;;3.50;;
58101;SDS011;52034;51.926;6.320;2023-03-14T05:31:14;9.00;;;3.47;;
58101;SDS011;52034;51.926;6.320;2023-03-14T05:32:23;9.27;;;3.53;;
58101;SDS011;52034;51.926;6.320;2023-03-14T05:33:30;7.85;;;3.60;;
58101;SDS011;52034;51.926;6.320;2023-03-14T05:34:44;9.43;;;3.65;;
58101;SDS011;52034;51.926;6.320;2023-03-14T05:35:59;11.90;;;3.80;;
58101;SDS011;52034;51.926;6.320;2023-03-14T05:37:25;9.75;;;3.80;;
58101;SDS011;52034;51.926;6.320;2023-03-14T05:38:52;12.20;;;4.10;;
58101;SDS011;52034;51.926;6.320;2023-03-14T05:39:58;10.18;;;3.60;;
58101;SDS011;52034;51.926;6.320;2023-03-14T05:41:08;9.05;;;3.58;;
58101;SDS011;52034;51.926;6.320;2023-03-14T05:42:16;11.65;;;4.20;;
58101;SDS011;52034;51.926;6.320;2023-03-14T05:43:44;10.85;;;3.63;;
58101;SDS011;52034;51.926;6.320;2023-03-14T05:45:06;10.57;;;3.65;;
58101;SDS011;52034;51.926;6.320;2023-03-14T05:46:25;6.85;;;3.38;;
58101;SDS011;52034;51.926;6.320;2023-03-14T05:47:43;9.23;;;3.67;;
58101;SDS011;52034;51.926;6.320;2023-03-14T05:48:57;9.88;;;3.92;;
58101;SDS011;52034;51.926;6.320;2023-03-14T05:50:15;6.82;;;3.80;;
58101;SDS011;52034;51.926;6.320;2023-03-14T05:51:27;9.20;;;4.20;;
58101;SDS011;52034;51.926;6.320;2023-03-14T05:52:46;11.38;;;4.03;;
58101;SDS011;52034;51.926;6.320;2023-03-14T05:54:24;8.50;;;3.40;;
58101;SDS011;52034;51.926;6.320;2023-03-14T05:55:34;8.75;;;4.25;;
58101;SDS011;52034;51.926;6.320;2023-03-14T05:57:00;9.50;;;3.95;;
58101;SDS011;52034;51.926;6.320;2023-03-14T05:58:26;10.43;;;3.88;;
58101;SDS011;52034;51.926;6.320;2023-03-14T05:59:39;7.80;;;3.70;;
58101;SDS011;52034;51.926;6.320;2023-03-14T06:00:47;5.95;;;3.70;;
58101;SDS011;52034;51.926;6.320;2023-03-14T06:02:02;7.82;;;3.58;;
58101;SDS011;52034;51.926;6.320;2023-03-14T06:03:11;4.63;;;3.38;;
58101;SDS011;52034;51.926;6.320;2023-03-14T06:04:16;8.88;;;3.75;;
58101;SDS011;52034;51.926;6.320;2023-03-14T06:05:20;7.93;;;3.60;;
58101;SDS011;52034;51.926;6.320;2023-03-14T06:06:21;7.28;;;3.53;;
58101;SDS011;52034;51.926;6.320;2023-03-14T06:07:21;6.93;;;3.80;;
58101;SDS011;52034;51.926;6.320;2023-03-14T06:08:22;8.80;;;3.60;;
58101;SDS011;52034;51.926;6.320;2023-03-14T06:09:22;5.00;;;3.20;;
58101;SDS011;52034;51.926;6.320;2023-03-14T06:10:24;5.82;;;3.35;;
58101;SDS011;52034;51.926;6.320;2023-03-14T06:11:25;6.60;;;3.55;;
58101;SDS011;52034;51.926;6.320;2023-03-14T06:12:25;5.80;;;3.37;;
58101;SDS011;52034;51.926;6.320;2023-03-14T06:13:26;5.47;;;3.00;;
58101;SDS011;52034;51.926;6.320;2023-03-14T06:14:26;4.77;;;3.37;;
58101;SDS011;52034;51.926;6.320;2023-03-14T06:15:27;5.93;;;3.47;;
58101;SDS011;52034;51.926;6.320;2023-03-14T06:16:29;6.72;;;3.78;;
58101;SDS011;52034;51.926;6.320;2023-03-14T06:17:29;4.53;;;3.30;;
58101;SDS011;52034;51.926;6.320;2023-03-14T06:18:36;4.20;;;3.10;;
58101;SDS011;52034;51.926;6.320;2023-03-14T06:19:40;3.90;;;3.33;;
58101;SDS011;52034;51.926;6.320;2023-03-14T06:21:46;3.58;;;3.28;;
58101;SDS011;52034;51.926;6.320;2023-03-14T06:22:46;5.00;;;3.45;;
58101;SDS011;52034;51.926;6.320;2023-03-14T06:23:47;4.17;;;3.40;;
58101;SDS011;52034;51.926;6.320;2023-03-14T06:24:47;8.57;;;3.30;;
58101;SDS011;52034;51.926;6.320;2023-03-14T06:25:50;8.07;;;3.53;;
58101;SDS011;52034;51.926;6.320;2023-03-14T06:26:51;8.00;;;4.07;;
58101;SDS011;52034;51.926;6.320;2023-03-14T06:27:51;6.13;;;3.70;;
58101;SDS011;52034;51.926;6.320;2023-03-14T06:28:51;6.33;;;3.73;;
58101;SDS011;52034;51.926;6.320;2023-03-14T06:29:53;5.90;;;3.33;;
58101;SDS011;52034;51.926;6.320;2023-03-14T06:30:54;5.17;;;3.50;;
58101;SDS011;52034;51.926;6.320;2023-03-14T06:31:54;6.33;;;4.20;;
58101;SDS011;52034;51.926;6.320;2023-03-14T06:32:55;6.13;;;4.40;;
58101;SDS011;52034;51.926;6.320;2023-03-14T06:33:56;7.30;;;3.90;;
58101;SDS011;52034;51.926;6.320;2023-03-14T06:35:00;8.45;;;4.22;;
58101;SDS011;52034;51.926;6.320;2023-03-14T06:36:01;8.82;;;4.50;;
58101;SDS011;52034;51.926;6.320;2023-03-14T06:37:02;6.77;;;4.17;;
58101;SDS011;52034;51.926;6.320;2023-03-14T06:38:02;8.40;;;4.03;;
58101;SDS011;52034;51.926;6.320;2023-03-14T06:39:03;6.40;;;4.00;;
58101;SDS011;52034;51.926;6.320;2023-03-14T06:40:05;6.97;;;4.30;;
58101;SDS011;52034;51.926;6.320;2023-03-14T06:41:25;7.05;;;4.38;;
58101;SDS011;52034;51.926;6.320;2023-03-14T06:42:26;6.57;;;4.38;;